createdAt,value
2019-03-01T00:02:26.290Z,4.50
2019-03-01T00:04:55.949Z,4.33
2019-03-01T00:07:45.372Z,4.30
2019-03-01T00:10:26.794Z,4.20
2019-03-01T00:13:02.741Z,4.17
2019-03-01T00:15:35.253Z,4.13
2019-03-01T00:18:04.871Z,3.23
2019-03-01T00:20:43.496Z,4.57
2019-03-01T00:23:13.133Z,3.67
2019-03-01T00:25:52.013Z,3.87
2019-03-01T00:28:21.691Z,4.03
2019-03-01T00:30:57.487Z,4.23
2019-03-01T00:33:30.116Z,4.00
2019-03-01T00:35:59.799Z,4.20
2019-03-01T00:38:38.289Z,3.87
2019-03-01T00:41:24.430Z,3.63
2019-03-01T00:44:06.062Z,4.07
2019-03-01T00:46:34.213Z,3.53
2019-03-01T00:49:02.304Z,3.33
2019-03-01T00:51:30.440Z,3.70
2019-03-01T00:53:58.521Z,3.23
2019-03-01T00:56:26.637Z,3.63
2019-03-01T00:58:54.747Z,3.43
2019-03-01T01:01:22.882Z,3.50
2019-03-01T01:03:51.060Z,3.30
2019-03-01T01:06:19.158Z,3.07
2019-03-01T01:08:47.278Z,3.47
2019-03-01T01:11:15.415Z,3.23
2019-03-01T01:13:43.505Z,3.53
2019-03-01T01:16:11.708Z,3.10
2019-03-01T01:18:39.811Z,3.60
2019-03-01T01:21:07.932Z,3.83
2019-03-01T01:23:36.037Z,3.47
2019-03-01T01:26:04.161Z,4.07
2019-03-01T01:28:32.276Z,4.03
2019-03-01T01:31:00.373Z,3.63
2019-03-01T01:33:28.554Z,3.77
2019-03-01T01:35:56.676Z,3.20
2019-03-01T01:38:24.800Z,3.73
2019-03-01T01:40:52.874Z,3.60
2019-03-01T01:43:21.016Z,3.27
2019-03-01T01:45:49.132Z,3.00
2019-03-01T01:48:17.268Z,3.33
2019-03-01T01:50:45.376Z,3.47
2019-03-01T01:53:13.518Z,3.50
2019-03-01T01:55:41.647Z,3.90
2019-03-01T01:58:09.756Z,3.30
2019-03-01T02:00:38.540Z,3.10
2019-03-01T02:03:06.753Z,2.87
2019-03-01T02:05:34.857Z,3.10
2019-03-01T02:08:03.021Z,2.80
2019-03-01T02:10:31.185Z,2.80
2019-03-01T02:12:59.336Z,2.77
2019-03-01T02:15:27.444Z,3.13
2019-03-01T02:17:55.560Z,2.80
2019-03-01T02:20:23.665Z,2.83
2019-03-01T02:22:51.789Z,3.30
2019-03-01T02:25:19.909Z,3.50
2019-03-01T02:27:48.024Z,3.10
2019-03-01T02:30:20.318Z,3.30
2019-03-01T02:32:48.492Z,3.40
2019-03-01T02:35:17.382Z,3.20
2019-03-01T02:37:45.552Z,3.23
2019-03-01T02:40:14.745Z,3.23
2019-03-01T02:42:42.849Z,3.37
2019-03-01T02:45:12.184Z,3.43
2019-03-01T02:47:40.286Z,3.63
2019-03-01T02:50:09.905Z,3.27
2019-03-01T02:52:38.071Z,3.47
2019-03-01T02:55:07.777Z,3.20
2019-03-01T02:57:35.875Z,3.37
2019-03-01T03:00:05.579Z,3.43
2019-03-01T03:02:33.700Z,3.10
2019-03-01T03:05:01.843Z,3.03
2019-03-01T03:07:34.373Z,3.10
2019-03-01T03:10:02.490Z,3.07
2019-03-01T03:12:30.614Z,3.10
2019-03-01T03:14:58.757Z,3.40
2019-03-01T03:17:26.861Z,3.23
2019-03-01T03:19:54.961Z,3.53
2019-03-01T03:22:23.070Z,3.00
2019-03-01T03:24:51.207Z,3.90
2019-03-01T03:27:19.309Z,3.90
2019-03-01T03:29:47.521Z,3.47
2019-03-01T03:32:15.622Z,3.50
2019-03-01T03:34:43.741Z,3.23
2019-03-01T03:37:11.839Z,3.40
2019-03-01T03:39:39.994Z,3.80
2019-03-01T03:42:08.304Z,4.03
2019-03-01T03:44:36.500Z,4.27
2019-03-01T03:47:04.637Z,3.77
2019-03-01T03:49:32.721Z,4.03
2019-03-01T03:52:00.867Z,3.70
2019-03-01T03:54:28.959Z,4.17
2019-03-01T03:56:57.100Z,3.70
2019-03-01T03:59:25.234Z,3.83
2019-03-01T04:01:53.355Z,3.77
2019-03-01T04:04:21.447Z,4.70
2019-03-01T04:06:49.581Z,4.33
2019-03-01T04:09:17.664Z,4.37
2019-03-01T04:11:45.882Z,4.50
2019-03-01T04:14:14.063Z,4.17
2019-03-01T04:16:42.375Z,4.53
2019-03-01T04:19:10.466Z,4.83
2019-03-01T04:21:38.591Z,4.73
2019-03-01T04:24:06.728Z,4.60
2019-03-01T04:26:34.868Z,4.73
2019-03-01T04:29:02.975Z,4.63
2019-03-01T04:31:31.077Z,4.17
2019-03-01T04:33:59.229Z,4.30
2019-03-01T04:36:27.350Z,4.63
2019-03-01T04:38:55.464Z,4.50
2019-03-01T04:41:23.558Z,4.40
2019-03-01T04:43:51.673Z,4.33
2019-03-01T04:46:19.829Z,4.27
2019-03-01T04:48:47.979Z,3.97
2019-03-01T04:51:16.087Z,4.07
2019-03-01T04:53:44.203Z,3.80
2019-03-01T04:56:12.296Z,4.10
2019-03-01T04:58:40.445Z,3.90
2019-03-01T05:01:08.557Z,3.63
2019-03-01T05:03:36.725Z,3.60
2019-03-01T05:06:04.868Z,3.43
2019-03-01T05:08:33.000Z,3.27
2019-03-01T05:11:01.111Z,3.40
2019-03-01T05:13:29.243Z,3.63
2019-03-01T05:15:57.343Z,3.60
2019-03-01T05:18:25.485Z,3.53
2019-03-01T05:20:53.603Z,3.73
2019-03-01T05:23:21.729Z,3.57
2019-03-01T05:25:49.819Z,3.70
2019-03-01T05:28:17.924Z,3.80
2019-03-01T05:30:46.025Z,4.27
2019-03-01T05:33:14.382Z,3.47
2019-03-01T05:35:42.466Z,3.10
2019-03-01T05:38:10.621Z,3.40
2019-03-01T05:40:38.721Z,3.60
2019-03-01T05:43:06.844Z,3.23
2019-03-01T05:45:34.932Z,3.33
2019-03-01T05:48:03.075Z,3.27
2019-03-01T05:50:31.182Z,3.07
2019-03-01T05:52:59.302Z,2.70
2019-03-01T05:55:27.379Z,3.20
2019-03-01T05:58:16.491Z,3.10
2019-03-01T06:00:43.648Z,2.67
2019-03-01T06:03:30.202Z,2.80
2019-03-01T06:05:58.348Z,2.77
2019-03-01T06:08:28.109Z,3.43
2019-03-01T06:10:58.055Z,2.93
2019-03-01T06:13:30.580Z,2.63
2019-03-01T06:16:15.451Z,2.50
2019-03-01T06:18:51.094Z,2.67
2019-03-01T06:21:37.192Z,2.43
2019-03-01T06:24:12.519Z,2.13
2019-03-01T06:26:47.828Z,2.63
2019-03-01T06:29:17.461Z,2.50
2019-03-01T06:31:47.085Z,2.63
2019-03-01T06:34:16.781Z,2.40
2019-03-01T06:37:03.315Z,3.00
2019-03-01T06:39:51.334Z,2.57
2019-03-01T06:42:25.234Z,2.40
2019-03-01T06:44:54.873Z,2.40
2019-03-01T06:47:24.460Z,2.70
2019-03-01T06:50:10.439Z,2.50
2019-03-01T06:52:38.505Z,2.80
2019-03-01T06:55:08.236Z,3.10
2019-03-01T06:57:36.314Z,3.80
2019-03-01T07:00:07.415Z,3.93
2019-03-01T07:02:43.043Z,4.43
2019-03-01T07:05:11.124Z,3.20
2019-03-01T07:07:39.208Z,3.40
2019-03-01T07:10:08.188Z,2.50
2019-03-01T07:12:36.284Z,2.27
2019-03-01T07:15:07.161Z,2.50
2019-03-01T07:17:35.218Z,2.50
2019-03-01T07:20:03.591Z,2.27
2019-03-01T07:22:31.705Z,1.80
2019-03-01T07:24:59.800Z,1.80
2019-03-01T07:27:27.902Z,1.83
2019-03-01T07:29:55.985Z,1.60
2019-03-01T07:32:24.063Z,1.40
2019-03-01T07:34:52.163Z,1.50
2019-03-01T07:37:21.891Z,1.77
2019-03-01T07:39:50.128Z,1.10
2019-03-01T07:42:18.226Z,1.50
2019-03-01T07:44:46.333Z,1.40
2019-03-01T07:47:14.435Z,1.50
2019-03-01T07:49:42.546Z,1.60
2019-03-01T07:52:10.685Z,1.40
2019-03-01T07:54:38.830Z,1.30
2019-03-01T07:57:06.969Z,1.33
2019-03-01T07:59:38.169Z,1.60
2019-03-01T08:02:05.074Z,1.50
2019-03-01T08:04:33.322Z,1.40
2019-03-01T08:07:01.487Z,1.70
2019-03-01T08:09:29.581Z,1.70
2019-03-01T08:11:57.691Z,1.80
2019-03-01T08:14:27.971Z,2.27
2019-03-01T08:16:56.071Z,1.80
2019-03-01T08:19:24.945Z,2.27
2019-03-01T08:21:53.057Z,2.20
2019-03-01T08:24:21.209Z,2.33
2019-03-01T08:26:49.437Z,2.40
2019-03-01T08:29:17.585Z,3.03
2019-03-01T08:31:45.714Z,2.70
2019-03-01T08:34:14.466Z,2.97
2019-03-01T08:36:43.750Z,2.80
2019-03-01T08:39:11.891Z,3.17
2019-03-01T08:41:40.007Z,3.60
2019-03-01T08:44:08.130Z,3.07
2019-03-01T08:46:36.250Z,2.90
2019-03-01T08:49:06.706Z,3.17
2019-03-01T08:51:34.222Z,3.67
2019-03-01T08:54:02.332Z,3.13
2019-03-01T08:56:30.490Z,3.37
2019-03-01T08:58:58.605Z,3.77
2019-03-01T09:01:26.712Z,3.60
2019-03-01T09:04:05.780Z,3.67
2019-03-01T09:06:33.904Z,3.60
2019-03-01T09:09:02.008Z,3.57
2019-03-01T09:11:30.678Z,3.20
2019-03-01T09:13:58.950Z,3.70
2019-03-01T09:16:27.075Z,3.60
2019-03-01T09:18:55.192Z,3.30
2019-03-01T09:21:23.271Z,3.60
2019-03-01T09:23:54.031Z,3.50
2019-03-01T09:26:24.191Z,3.30
2019-03-01T09:28:52.316Z,3.40
2019-03-01T09:31:20.403Z,3.07
2019-03-01T09:33:48.514Z,3.17
2019-03-01T09:36:24.336Z,2.63
2019-03-01T09:38:52.470Z,3.30
2019-03-01T09:41:20.605Z,2.93
2019-03-01T09:43:48.838Z,2.67
2019-03-01T09:46:16.937Z,2.80
2019-03-01T09:48:45.555Z,3.37
2019-03-01T09:51:15.917Z,2.70
2019-03-01T09:53:44.266Z,3.30
2019-03-01T09:56:12.912Z,2.90
2019-03-01T09:58:41.942Z,2.67
2019-03-01T10:01:11.558Z,2.83
2019-03-01T10:03:39.693Z,2.80
2019-03-01T10:06:07.791Z,3.33
2019-03-01T10:08:35.955Z,2.60
2019-03-01T10:11:04.164Z,2.50
2019-03-01T10:16:00.436Z,2.40
2019-03-01T10:18:28.548Z,2.30
2019-03-01T10:20:56.657Z,2.13
2019-03-01T10:23:24.759Z,1.80
2019-03-01T10:25:52.951Z,2.20
2019-03-01T10:28:21.052Z,2.47
2019-03-01T10:30:49.160Z,2.10
2019-03-01T10:33:17.287Z,2.20
2019-03-01T10:35:45.397Z,2.60
2019-03-01T10:38:13.532Z,2.07
2019-03-01T10:40:41.632Z,2.50
2019-03-01T10:43:09.775Z,2.10
2019-03-01T10:45:37.910Z,2.67
2019-03-01T10:48:06.025Z,2.77
2019-03-01T10:50:34.197Z,2.57
2019-03-01T10:53:02.314Z,2.67
2019-03-01T10:55:30.440Z,2.77
2019-03-01T10:57:58.535Z,2.87
2019-03-01T11:00:27.216Z,2.63
2019-03-01T11:02:55.924Z,2.73
2019-03-01T11:05:24.378Z,3.17
2019-03-01T11:07:54.036Z,3.00
2019-03-01T11:10:28.957Z,3.33
2019-03-01T11:12:57.073Z,4.03
2019-03-01T11:15:25.166Z,3.20
2019-03-01T11:17:53.373Z,3.50
2019-03-01T11:20:22.616Z,4.20
2019-03-01T11:22:50.731Z,4.07
2019-03-01T11:25:20.388Z,4.70
2019-03-01T11:27:48.544Z,4.27
2019-03-01T11:30:17.839Z,4.53
2019-03-01T11:32:45.972Z,5.40
2019-03-01T11:35:14.430Z,5.60
2019-03-01T11:37:42.719Z,5.97
2019-03-01T11:40:12.363Z,6.00
2019-03-01T11:42:40.494Z,5.97
2019-03-01T11:45:09.545Z,6.60
2019-03-01T11:47:37.674Z,6.97
2019-03-01T11:50:10.238Z,7.90
2019-03-01T11:52:38.349Z,8.03
2019-03-01T11:55:07.188Z,6.13
2019-03-01T11:57:35.302Z,8.37
2019-03-01T12:00:05.278Z,6.77
2019-03-01T12:02:33.419Z,7.83
2019-03-01T12:05:01.533Z,7.60
2019-03-01T12:07:29.688Z,9.60
2019-03-01T12:09:57.802Z,7.20
2019-03-01T12:12:25.969Z,7.40
2019-03-01T12:14:54.294Z,7.13
2019-03-01T12:17:22.725Z,7.90
2019-03-01T12:19:50.829Z,7.33
2019-03-01T12:22:18.957Z,7.60
2019-03-01T12:24:47.052Z,7.63
2019-03-01T12:27:15.239Z,6.87
2019-03-01T12:29:43.387Z,8.10
2019-03-01T12:32:11.513Z,7.77
2019-03-01T12:34:39.620Z,7.53
2019-03-01T12:37:07.743Z,5.00
2019-03-01T12:39:35.868Z,6.73
2019-03-01T12:42:03.967Z,7.87
2019-03-01T12:44:32.107Z,8.00
2019-03-01T12:47:00.311Z,8.37
2019-03-01T12:49:28.606Z,8.43
2019-03-01T12:51:56.732Z,9.03
2019-03-01T12:54:24.835Z,8.57
2019-03-01T12:56:52.969Z,9.13
2019-03-01T12:59:21.099Z,9.40
2019-03-01T13:01:49.207Z,10.10
2019-03-01T13:04:18.683Z,9.27
2019-03-01T13:06:47.218Z,8.60
2019-03-01T13:09:15.419Z,9.67
2019-03-01T13:11:43.541Z,9.73
2019-03-01T13:14:11.665Z,10.23
2019-03-01T13:16:39.748Z,10.40
2019-03-01T13:19:07.919Z,10.70
2019-03-01T13:21:36.047Z,16.00
2019-03-01T13:24:04.163Z,10.03
2019-03-01T13:26:32.283Z,11.73
2019-03-01T13:29:00.411Z,11.83
2019-03-01T13:31:28.534Z,9.80
2019-03-01T13:33:56.724Z,12.83
2019-03-01T13:36:24.836Z,13.90
2019-03-01T13:38:53.036Z,12.43
2019-03-01T13:41:21.118Z,12.90
2019-03-01T13:43:49.304Z,14.57
2019-03-01T13:46:17.404Z,13.50
2019-03-01T13:48:45.541Z,14.03
2019-03-01T13:51:13.994Z,12.13
2019-03-01T13:53:48.915Z,12.90
2019-03-01T13:56:13.377Z,12.47
2019-03-01T13:58:41.507Z,11.70
2019-03-01T14:01:09.596Z,11.10
2019-03-01T14:03:37.756Z,10.37
2019-03-01T14:06:05.881Z,10.53
2019-03-01T14:08:34.016Z,10.40
2019-03-01T14:11:02.104Z,9.50
2019-03-01T14:13:30.234Z,10.37
2019-03-01T14:15:58.336Z,10.60
2019-03-01T14:18:27.464Z,10.10
2019-03-01T14:20:58.173Z,10.73
2019-03-01T14:23:25.994Z,12.23
2019-03-01T14:25:54.684Z,10.50
2019-03-01T14:28:22.978Z,13.23
2019-03-01T14:30:51.076Z,16.07
2019-03-01T14:33:19.209Z,15.87
2019-03-01T14:35:47.328Z,17.47
2019-03-01T14:38:15.527Z,16.30
2019-03-01T14:40:43.674Z,17.67
2019-03-01T14:43:12.406Z,17.93
2019-03-01T14:45:41.656Z,23.50
2019-03-01T14:48:10.546Z,25.93
2019-03-01T14:50:38.704Z,27.73
2019-03-01T14:53:06.893Z,26.10
2019-03-01T14:55:39.278Z,27.73
2019-03-01T14:58:08.986Z,30.17
2019-03-01T15:00:50.982Z,21.53
2019-03-01T15:03:33.468Z,23.57
2019-03-01T15:06:01.610Z,29.43
2019-03-01T15:08:29.837Z,27.83
2019-03-01T15:10:58.948Z,29.10
2019-03-01T15:13:27.863Z,23.40
2019-03-01T15:15:56.637Z,22.57
2019-03-01T15:18:25.121Z,22.27
2019-03-01T15:20:56.259Z,18.13
2019-03-01T15:23:24.087Z,21.87
2019-03-01T15:25:53.012Z,23.63
2019-03-01T15:28:21.174Z,22.03
2019-03-01T15:30:49.306Z,22.07
2019-03-01T15:33:17.433Z,20.40
2019-03-01T15:35:45.536Z,20.13
2019-03-01T15:38:13.654Z,21.20
2019-03-01T15:40:41.784Z,19.73
2019-03-01T15:43:09.878Z,19.90
2019-03-01T15:45:39.878Z,22.00
2019-03-01T15:48:07.911Z,20.67
2019-03-01T15:50:36.050Z,20.20
2019-03-01T15:53:04.160Z,20.03
2019-03-01T15:55:32.299Z,18.93
2019-03-01T15:58:00.383Z,13.53
2019-03-01T16:00:29.426Z,17.73
2019-03-01T16:02:58.387Z,18.60
2019-03-01T16:05:26.508Z,18.10
2019-03-01T16:07:54.608Z,17.03
2019-03-01T16:10:22.752Z,18.87
2019-03-01T16:12:50.913Z,15.30
2019-03-01T16:15:19.114Z,17.47
2019-03-01T16:17:47.250Z,17.47
2019-03-01T16:20:16.899Z,18.03
2019-03-01T16:22:45.086Z,17.77
2019-03-01T16:25:20.558Z,16.20
2019-03-01T16:27:50.639Z,15.63
2019-03-01T16:30:19.927Z,15.50
2019-03-01T16:32:50.373Z,15.17
2019-03-01T16:35:19.442Z,15.60
2019-03-01T16:38:01.422Z,14.93
2019-03-01T16:40:28.059Z,12.63
2019-03-01T16:42:56.149Z,16.20
2019-03-01T16:45:24.308Z,13.53
2019-03-01T16:47:52.437Z,14.27
2019-03-01T16:50:20.649Z,14.27
2019-03-01T16:52:48.770Z,14.53
2019-03-01T16:55:18.431Z,13.73
2019-03-01T16:57:48.661Z,14.60
2019-03-01T17:00:18.131Z,15.30
2019-03-01T17:02:48.055Z,15.10
2019-03-01T17:05:16.321Z,15.53
2019-03-01T17:07:44.570Z,14.27
2019-03-01T17:10:16.505Z,14.97
2019-03-01T17:12:45.098Z,16.07
2019-03-01T17:15:14.782Z,15.23
2019-03-01T17:17:43.567Z,14.80
2019-03-01T17:20:12.013Z,13.03
2019-03-01T17:22:40.141Z,14.50
2019-03-01T17:25:09.320Z,15.23
2019-03-01T17:27:39.979Z,16.67
2019-03-01T17:30:11.164Z,16.43
2019-03-01T17:32:38.671Z,15.53
2019-03-01T17:35:08.111Z,14.87
2019-03-01T17:37:36.237Z,16.20
2019-03-01T17:40:05.654Z,15.70
2019-03-01T17:42:33.763Z,14.23
2019-03-01T17:45:01.939Z,15.10
2019-03-01T17:47:30.068Z,14.50
2019-03-01T17:49:58.233Z,14.93
2019-03-01T17:52:26.337Z,13.83
2019-03-01T17:54:57.595Z,14.37
2019-03-01T17:57:24.362Z,14.33
2019-03-01T17:59:52.486Z,13.70
2019-03-01T18:02:20.676Z,14.50
2019-03-01T18:04:48.780Z,14.93
2019-03-01T18:07:16.928Z,14.87
2019-03-01T18:09:45.036Z,14.63
2019-03-01T18:12:13.265Z,15.50
2019-03-01T18:14:41.378Z,13.83
2019-03-01T18:17:09.548Z,14.03
2019-03-01T18:19:37.657Z,13.43
2019-03-01T18:22:05.841Z,14.63
2019-03-01T18:24:33.945Z,15.27
2019-03-01T18:27:02.096Z,14.73
2019-03-01T18:29:30.222Z,13.13
2019-03-01T18:31:58.367Z,14.97
2019-03-01T18:34:29.804Z,14.37
2019-03-01T18:36:56.350Z,13.60
2019-03-01T18:39:24.467Z,14.00
2019-03-01T18:41:52.583Z,13.57
2019-03-01T18:44:22.340Z,13.70
2019-03-01T18:46:51.615Z,14.37
2019-03-01T18:49:20.802Z,13.03
2019-03-01T18:51:48.995Z,14.23
2019-03-01T18:54:17.135Z,13.17
2019-03-01T18:56:45.235Z,13.67
2019-03-01T18:59:13.340Z,13.50
2019-03-01T19:01:42.915Z,12.27
2019-03-01T19:04:13.018Z,13.23
2019-03-01T19:06:42.067Z,13.23
2019-03-01T19:09:12.734Z,13.67
2019-03-01T19:11:40.117Z,13.60
2019-03-01T19:14:08.228Z,14.00
2019-03-01T19:16:36.355Z,14.57
2019-03-01T19:19:04.471Z,14.00
2019-03-01T19:21:32.640Z,13.60
2019-03-01T19:24:00.749Z,14.33
2019-03-01T19:26:28.860Z,14.00
2019-03-01T19:28:58.922Z,15.00
2019-03-01T19:31:26.836Z,14.57
2019-03-01T19:33:54.928Z,15.57
2019-03-01T19:36:23.055Z,14.57
2019-03-01T19:38:51.174Z,14.00
2019-03-01T19:41:20.027Z,15.20
2019-03-01T19:43:54.915Z,15.47
2019-03-01T19:46:18.972Z,14.43
2019-03-01T19:48:47.104Z,15.13
2019-03-01T19:51:15.237Z,15.10
2019-03-01T19:53:43.376Z,14.57
2019-03-01T19:56:11.460Z,15.67
2019-03-01T19:58:39.615Z,15.27
2019-03-01T20:01:07.710Z,15.20
2019-03-01T20:03:35.833Z,16.40
2019-03-01T20:06:04.463Z,15.13
2019-03-01T20:08:33.889Z,15.67
2019-03-01T20:11:01.989Z,14.87
2019-03-01T20:13:30.118Z,14.30
2019-03-01T20:15:58.233Z,14.73
2019-03-01T20:18:26.352Z,15.27
2019-03-01T20:20:54.921Z,14.50
2019-03-01T20:23:23.252Z,14.13
2019-03-01T20:25:51.859Z,9.17
2019-03-01T20:28:20.017Z,14.90
2019-03-01T20:30:48.084Z,13.70
2019-03-01T20:33:16.177Z,13.67
2019-03-01T20:35:44.264Z,14.23
2019-03-01T20:38:12.340Z,13.93
2019-03-01T20:40:40.515Z,12.87
2019-03-01T20:43:08.736Z,13.13
2019-03-01T20:45:48.280Z,14.00
2019-03-01T20:48:16.591Z,13.40
2019-03-01T20:50:47.591Z,14.90
2019-03-01T20:53:14.615Z,14.23
2019-03-01T20:55:42.827Z,12.00
2019-03-01T20:58:10.922Z,14.23
2019-03-01T21:00:39.073Z,13.87
2019-03-01T21:03:07.169Z,14.27
2019-03-01T21:05:35.238Z,13.73
2019-03-01T21:08:03.349Z,13.53
2019-03-01T21:10:32.304Z,14.17
2019-03-01T21:13:00.390Z,13.07
2019-03-01T21:15:28.566Z,13.50
2019-03-01T21:17:58.444Z,14.03
2019-03-01T21:20:26.455Z,14.13
2019-03-01T21:22:54.607Z,13.03
2019-03-01T21:25:23.287Z,14.20
2019-03-01T21:27:51.386Z,13.50
2019-03-01T21:30:27.000Z,18.33
2019-03-01T21:32:55.262Z,14.37
2019-03-01T21:35:23.376Z,14.10
2019-03-01T21:37:51.936Z,13.03
2019-03-01T21:40:20.050Z,13.17
2019-03-01T21:42:48.148Z,12.97
2019-03-01T21:45:21.527Z,13.07
2019-03-01T21:47:49.680Z,12.60
2019-03-01T21:50:17.821Z,13.80
2019-03-01T21:52:45.904Z,13.33
2019-03-01T21:55:18.471Z,14.73
2019-03-01T21:57:46.548Z,13.83
2019-03-01T22:00:15.743Z,13.83
2019-03-01T22:02:43.802Z,14.73
2019-03-01T22:05:13.574Z,12.87
2019-03-01T22:07:45.452Z,13.37
2019-03-01T22:10:13.995Z,14.00
2019-03-01T22:12:42.067Z,13.93
2019-03-01T22:15:21.636Z,13.93
2019-03-01T22:20:46.732Z,14.53
2019-03-01T22:23:15.645Z,13.97
2019-03-01T22:25:44.587Z,14.17
2019-03-01T22:28:12.754Z,15.07
2019-03-01T22:30:42.110Z,15.07
2019-03-01T22:33:10.237Z,14.43
2019-03-01T22:35:40.525Z,15.07
2019-03-01T22:38:08.225Z,15.23
2019-03-01T22:40:36.312Z,13.90
2019-03-01T22:43:04.398Z,16.60
2019-03-01T22:45:32.645Z,16.23
2019-03-01T22:48:02.320Z,14.50
2019-03-01T22:50:30.538Z,15.00
2019-03-01T22:52:58.680Z,15.43
2019-03-01T22:55:26.774Z,14.90
2019-03-01T22:57:57.845Z,14.60
2019-03-01T23:00:47.170Z,14.87
2019-03-01T23:03:18.936Z,14.33
2019-03-01T23:05:45.591Z,15.47
2019-03-01T23:08:13.700Z,14.60
2019-03-01T23:10:41.908Z,14.73
2019-03-01T23:13:10.018Z,14.20
2019-03-01T23:15:39.489Z,14.30
2019-03-01T23:18:07.745Z,14.63
2019-03-01T23:20:35.852Z,14.20
2019-03-01T23:23:03.944Z,14.43
2019-03-01T23:25:33.212Z,13.27
2019-03-01T23:28:04.004Z,15.67
2019-03-01T23:30:34.183Z,15.43
2019-03-01T23:33:02.290Z,14.77
2019-03-01T23:35:32.003Z,15.47
2019-03-01T23:38:03.040Z,17.13
2019-03-01T23:40:32.846Z,14.33
2019-03-01T23:43:01.011Z,15.50
2019-03-01T23:45:30.606Z,14.93
2019-03-01T23:47:58.735Z,15.73
2019-03-01T23:50:26.822Z,14.33
2019-03-01T23:52:58.596Z,14.53
2019-03-01T23:55:24.710Z,15.80
2019-03-01T23:57:52.797Z,15.90
